sensor_id;sensor_type;location;lat;lon;timestamp;pressure;altitude;pressure_sealevel;temperature;humidity
59168;BME280;44948;55.046;73.266;2022-08-21T00:01:20;100712.66;;;10.64;76.32
59168;BME280;44948;55.046;73.266;2022-08-21T00:03:08;100652.06;;;10.28;75.99
59168;BME280;44948;55.046;73.266;2022-08-21T00:04:51;100698.34;;;10.56;76.22
59168;BME280;44948;55.046;73.266;2022-08-21T00:06:34;100711.41;;;10.70;76.34
59168;BME280;44948;55.046;73.266;2022-08-21T00:08:23;100716.66;;;10.70;77.41
59168;BME280;44948;55.046;73.266;2022-08-21T00:10:09;100720.88;;;10.72;77.45
59168;BME280;44948;55.046;73.266;2022-08-21T00:11:54;100718.16;;;10.74;77.13
59168;BME280;44948;55.046;73.266;2022-08-21T00:13:40;100716.28;;;10.76;76.71
59168;BME280;44948;55.046;73.266;2022-08-21T00:15:31;100712.66;;;10.79;77.46
59168;BME280;44948;55.046;73.266;2022-08-21T00:17:14;100631.09;;;10.28;77.89
59168;BME280;44948;55.046;73.266;2022-08-21T00:19:05;100631.09;;;10.28;77.26
59168;BME280;44948;55.046;73.266;2022-08-21T00:20:48;100690.00;;;10.63;77.50
59168;BME280;44948;55.046;73.266;2022-08-21T00:22:35;100709.00;;;10.81;77.28
59168;BME280;44948;55.046;73.266;2022-08-21T00:24:17;100705.88;;;10.48;77.84
59168;BME280;44948;55.046;73.266;2022-08-21T00:26:02;100521.47;;;9.52;78.00
59168;BME280;44948;55.046;73.266;2022-08-21T00:27:48;100712.72;;;10.77;77.93
59168;BME280;44948;55.046;73.266;2022-08-21T00:29:33;100656.78;;;10.50;77.42
59168;BME280;44948;55.046;73.266;2022-08-21T00:31:19;100705.13;;;10.87;77.49
59168;BME280;44948;55.046;73.266;2022-08-21T00:33:08;100696.19;;;10.89;77.27
59168;BME280;44948;55.046;73.266;2022-08-21T00:34:56;100656.28;;;10.57;77.56
59168;BME280;44948;55.046;73.266;2022-08-21T00:36:43;100682.09;;;10.78;77.32
59168;BME280;44948;55.046;73.266;2022-08-21T00:38:31;100620.41;;;10.31;76.67
59168;BME280;44948;55.046;73.266;2022-08-21T00:40:27;100706.22;;;10.97;77.34
59168;BME280;44948;55.046;73.266;2022-08-21T00:42:11;100709.69;;;10.97;77.69
59168;BME280;44948;55.046;73.266;2022-08-21T00:43:56;100705.16;;;10.99;77.14
59168;BME280;44948;55.046;73.266;2022-08-21T00:45:42;100703.16;;;11.03;76.74
59168;BME280;44948;55.046;73.266;2022-08-21T00:47:27;100702.97;;;11.06;77.11
59168;BME280;44948;55.046;73.266;2022-08-21T00:49:18;100698.75;;;11.03;77.05
59168;BME280;44948;55.046;73.266;2022-08-21T00:51:10;100700.25;;;11.08;77.27
59168;BME280;44948;55.046;73.266;2022-08-21T00:52:57;100680.91;;;10.96;77.19
59168;BME280;44948;55.046;73.266;2022-08-21T00:54:49;100683.31;;;10.99;76.33
59168;BME280;44948;55.046;73.266;2022-08-21T00:56:32;100671.47;;;10.93;76.93
59168;BME280;44948;55.046;73.266;2022-08-21T00:58:24;100697.03;;;11.17;76.91
59168;BME280;44948;55.046;73.266;2022-08-21T01:00:17;100703.53;;;11.24;76.95
59168;BME280;44948;55.046;73.266;2022-08-21T01:02:05;100698.28;;;11.24;77.04
59168;BME280;44948;55.046;73.266;2022-08-21T01:03:51;100693.44;;;11.18;76.81
59168;BME280;44948;55.046;73.266;2022-08-21T01:05:40;100698.09;;;11.27;76.40
59168;BME280;44948;55.046;73.266;2022-08-21T01:07:26;100695.66;;;11.24;76.64
59168;BME280;44948;55.046;73.266;2022-08-21T01:09:09;100662.66;;;11.07;76.30
59168;BME280;44948;55.046;73.266;2022-08-21T01:10:57;100675.28;;;11.15;75.92
59168;BME280;44948;55.046;73.266;2022-08-21T01:12:47;100705.44;;;11.34;76.74
59168;BME280;44948;55.046;73.266;2022-08-21T01:14:29;100621.75;;;10.78;76.18
59168;BME280;44948;55.046;73.266;2022-08-21T01:16:15;100683.47;;;11.23;76.75
59168;BME280;44948;55.046;73.266;2022-08-21T01:18:03;100645.75;;;10.98;76.90
59168;BME280;44948;55.046;73.266;2022-08-21T01:19:46;100707.47;;;11.44;76.67
59168;BME280;44948;55.046;73.266;2022-08-21T01:21:31;100708.50;;;11.41;76.18
59168;BME280;44948;55.046;73.266;2022-08-21T01:23:20;100603.81;;;10.84;76.46
59168;BME280;44948;55.046;73.266;2022-08-21T01:25:06;100569.13;;;10.66;76.70
59168;BME280;44948;55.046;73.266;2022-08-21T01:26:49;100645.03;;;11.22;76.88
59168;BME280;44948;55.046;73.266;2022-08-21T01:28:42;100700.13;;;11.61;76.88
59168;BME280;44948;55.046;73.266;2022-08-21T01:30:32;100585.03;;;10.90;76.50
59168;BME280;44948;55.046;73.266;2022-08-21T01:32:22;100694.22;;;11.58;77.00
59168;BME280;44948;55.046;73.266;2022-08-21T01:34:06;100624.66;;;11.13;76.25
59168;BME280;44948;55.046;73.266;2022-08-21T01:35:52;100709.59;;;11.64;76.81
59168;BME280;44948;55.046;73.266;2022-08-21T01:37:40;100696.44;;;11.64;76.73
59168;BME280;44948;55.046;73.266;2022-08-21T01:39:26;100625.50;;;11.26;76.49
59168;BME280;44948;55.046;73.266;2022-08-21T01:41:14;100548.94;;;10.81;76.73
59168;BME280;44948;55.046;73.266;2022-08-21T01:43:00;100701.50;;;11.80;77.08
59168;BME280;44948;55.046;73.266;2022-08-21T01:44:45;100700.31;;;11.84;76.40
59168;BME280;44948;55.046;73.266;2022-08-21T01:46:27;100705.38;;;11.87;76.27
59168;BME280;44948;55.046;73.266;2022-08-21T01:48:10;100696.13;;;11.94;76.79
59168;BME280;44948;55.046;73.266;2022-08-21T01:50:03;100670.78;;;11.80;76.11
59168;BME280;44948;55.046;73.266;2022-08-21T01:51:46;100665.66;;;11.79;76.17
59168;BME280;44948;55.046;73.266;2022-08-21T01:53:28;100642.34;;;11.61;76.58
59168;BME280;44948;55.046;73.266;2022-08-21T01:55:19;100694.75;;;12.01;75.14
59168;BME280;44948;55.046;73.266;2022-08-21T01:57:01;100694.22;;;11.71;76.65
59168;BME280;44948;55.046;73.266;2022-08-21T01:58:47;100706.63;;;11.94;76.35
59168;BME280;44948;55.046;73.266;2022-08-21T02:00:32;100641.91;;;11.68;76.30
59168;BME280;44948;55.046;73.266;2022-08-21T02:02:18;100702.00;;;12.10;76.60
59168;BME280;44948;55.046;73.266;2022-08-21T02:04:01;100674.44;;;12.03;76.63
59168;BME280;44948;55.046;73.266;2022-08-21T02:05:47;100675.59;;;12.12;76.28
59168;BME280;44948;55.046;73.266;2022-08-21T02:07:40;100704.31;;;12.28;75.68
59168;BME280;44948;55.046;73.266;2022-08-21T02:09:26;100690.94;;;12.31;76.17
59168;BME280;44948;55.046;73.266;2022-08-21T02:11:08;100696.25;;;12.42;76.12
59168;BME280;44948;55.046;73.266;2022-08-21T02:12:54;100662.84;;;12.31;75.55
59168;BME280;44948;55.046;73.266;2022-08-21T02:14:41;100697.78;;;12.57;76.03
59168;BME280;44948;55.046;73.266;2022-08-21T02:16:26;100694.72;;;12.63;75.92
59168;BME280;44948;55.046;73.266;2022-08-21T02:18:09;100710.06;;;12.69;75.21
59168;BME280;44948;55.046;73.266;2022-08-21T02:20:00;100699.72;;;12.79;75.35
59168;BME280;44948;55.046;73.266;2022-08-21T02:21:43;100696.97;;;12.80;74.98
59168;BME280;44948;55.046;73.266;2022-08-21T02:23:33;100698.28;;;12.86;75.01
59168;BME280;44948;55.046;73.266;2022-08-21T02:25:18;100695.84;;;12.96;74.58
59168;BME280;44948;55.046;73.266;2022-08-21T02:27:01;100669.22;;;12.88;74.73
59168;BME280;44948;55.046;73.266;2022-08-21T02:28:46;100607.34;;;12.58;74.86
59168;BME280;44948;55.046;73.266;2022-08-21T02:30:35;100534.28;;;12.27;74.92
59168;BME280;44948;55.046;73.266;2022-08-21T02:32:23;100605.91;;;12.78;74.79
59168;BME280;44948;55.046;73.266;2022-08-21T02:34:08;100572.84;;;12.74;74.60
59168;BME280;44948;55.046;73.266;2022-08-21T02:35:56;100628.63;;;13.14;74.01
59168;BME280;44948;55.046;73.266;2022-08-21T02:37:53;100661.72;;;13.40;73.96
59168;BME280;44948;55.046;73.266;2022-08-21T02:39:37;100687.91;;;13.66;73.92
59168;BME280;44948;55.046;73.266;2022-08-21T02:41:21;100690.06;;;13.72;73.85
59168;BME280;44948;55.046;73.266;2022-08-21T02:43:05;100671.81;;;13.58;74.11
59168;BME280;44948;55.046;73.266;2022-08-21T02:44:54;100696.88;;;13.74;73.89
59168;BME280;44948;55.046;73.266;2022-08-21T02:46:40;100689.38;;;13.81;73.99
59168;BME280;44948;55.046;73.266;2022-08-21T02:48:25;100691.03;;;13.82;73.63
59168;BME280;44948;55.046;73.266;2022-08-21T02:50:10;100613.34;;;13.30;73.67
59168;BME280;44948;55.046;73.266;2022-08-21T02:51:52;100546.44;;;12.87;73.93
59168;BME280;44948;55.046;73.266;2022-08-21T02:53:44;100546.09;;;12.91;73.77
59168;BME280;44948;55.046;73.266;2022-08-21T02:55:31;100685.06;;;13.80;73.80
59168;BME280;44948;55.046;73.266;2022-08-21T02:57:19;100614.53;;;13.37;73.72
59168;BME280;44948;55.046;73.266;2022-08-21T02:59:02;100662.84;;;13.60;74.32
59168;BME280;44948;55.046;73.266;2022-08-21T03:00:45;100665.47;;;13.60;75.06
59168;BME280;44948;55.046;73.266;2022-08-21T03:02:31;100557.56;;;12.79;75.18
59168;BME280;44948;55.046;73.266;2022-08-21T03:04:16;100594.84;;;13.08;75.68
59168;BME280;44948;55.046;73.266;2022-08-21T03:05:58;100686.56;;;13.49;75.70
59168;BME280;44948;55.046;73.266;2022-08-21T03:07:46;100698.44;;;13.66;75.88
59168;BME280;44948;55.046;73.266;2022-08-21T03:09:37;100693.91;;;13.68;75.76
59168;BME280;44948;55.046;73.266;2022-08-21T03:11:21;100656.22;;;13.43;75.65
59168;BME280;44948;55.046;73.266;2022-08-21T03:13:09;100696.66;;;13.66;76.01
59168;BME280;44948;55.046;73.266;2022-08-21T03:14:54;100703.47;;;13.69;75.77
59168;BME280;44948;55.046;73.266;2022-08-21T03:16:39;100699.03;;;13.58;76.39
59168;BME280;44948;55.046;73.266;2022-08-21T03:18:24;100718.69;;;13.65;75.82
59168;BME280;44948;55.046;73.266;2022-08-21T03:20:14;100681.41;;;13.48;76.18
59168;BME280;44948;55.046;73.266;2022-08-21T03:22:03;100703.22;;;13.61;76.66
59168;BME280;44948;55.046;73.266;2022-08-21T03:23:47;100626.94;;;13.13;76.32
59168;BME280;44948;55.046;73.266;2022-08-21T03:25:30;100712.81;;;13.62;76.09
59168;BME280;44948;55.046;73.266;2022-08-21T03:27:19;100704.09;;;13.61;76.63
59168;BME280;44948;55.046;73.266;2022-08-21T03:29:03;100716.38;;;13.61;76.68
59168;BME280;44948;55.046;73.266;2022-08-21T03:30:48;100715.91;;;13.56;77.10
59168;BME280;44948;55.046;73.266;2022-08-21T03:32:36;100699.56;;;13.39;76.79
59168;BME280;44948;55.046;73.266;2022-08-21T03:34:23;100717.09;;;13.52;76.95
59168;BME280;44948;55.046;73.266;2022-08-21T03:36:07;100717.72;;;13.55;77.67
59168;BME280;44948;55.046;73.266;2022-08-21T03:37:57;100714.47;;;13.52;78.48
59168;BME280;44948;55.046;73.266;2022-08-21T03:39:41;100663.31;;;13.08;78.43
59168;BME280;44948;55.046;73.266;2022-08-21T03:41:27;100589.16;;;12.55;79.02
59168;BME280;44948;55.046;73.266;2022-08-21T03:43:15;100675.06;;;13.15;78.66
59168;BME280;44948;55.046;73.266;2022-08-21T03:45:04;100727.16;;;13.47;79.62
59168;BME280;44948;55.046;73.266;2022-08-21T03:46:47;100704.56;;;13.31;79.38
59168;BME280;44948;55.046;73.266;2022-08-21T03:48:32;100687.22;;;13.29;79.18
59168;BME280;44948;55.046;73.266;2022-08-21T03:50:17;100726.44;;;13.44;79.03
59168;BME280;44948;55.046;73.266;2022-08-21T03:52:00;100691.72;;;13.27;79.15
59168;BME280;44948;55.046;73.266;2022-08-21T03:53:42;100595.50;;;12.52;79.60
59168;BME280;44948;55.046;73.266;2022-08-21T03:55:25;100726.50;;;13.43;79.42
59168;BME280;44948;55.046;73.266;2022-08-21T03:57:13;100722.09;;;13.43;80.10
59168;BME280;44948;55.046;73.266;2022-08-21T04:00:23;100728.78;;;13.36;79.75
59168;BME280;44948;55.046;73.266;2022-08-21T04:02:39;100455.34;;;11.44;80.87
59168;BME280;44948;55.046;73.266;2022-08-21T04:05:37;100483.41;;;11.67;80.69
59168;BME280;44948;55.046;73.266;2022-08-21T04:08:10;100415.25;;;11.29;81.07
59168;BME280;44948;55.046;73.266;2022-08-21T04:09:57;100639.50;;;12.74;81.69
59168;BME280;44948;55.046;73.266;2022-08-21T04:11:46;100629.78;;;12.75;81.41
59168;BME280;44948;55.046;73.266;2022-08-21T04:13:31;100694.47;;;13.14;81.18
59168;BME280;44948;55.046;73.266;2022-08-21T04:15:22;100739.78;;;13.41;81.05
59168;BME280;44948;55.046;73.266;2022-08-21T04:17:05;100613.34;;;12.60;81.48
59168;BME280;44948;55.046;73.266;2022-08-21T04:18:51;100732.44;;;13.47;81.80
59168;BME280;44948;55.046;73.266;2022-08-21T04:20:36;100709.81;;;13.20;81.81
59168;BME280;44948;55.046;73.266;2022-08-21T04:22:20;100737.03;;;13.43;81.95
59168;BME280;44948;55.046;73.266;2022-08-21T04:24:03;100738.84;;;13.42;81.94
59168;BME280;44948;55.046;73.266;2022-08-21T04:25:49;100704.88;;;13.15;81.84
59168;BME280;44948;55.046;73.266;2022-08-21T04:27:34;100683.16;;;13.01;81.74
59168;BME280;44948;55.046;73.266;2022-08-21T04:29:20;100708.25;;;13.18;82.29
59168;BME280;44948;55.046;73.266;2022-08-21T04:31:02;100748.78;;;13.39;82.28
59168;BME280;44948;55.046;73.266;2022-08-21T04:32:49;100737.72;;;13.47;81.14
59168;BME280;44948;55.046;73.266;2022-08-21T04:34:35;100724.22;;;13.38;81.28
59168;BME280;44948;55.046;73.266;2022-08-21T04:36:18;100739.38;;;13.48;81.53
59168;BME280;44948;55.046;73.266;2022-08-21T04:38:03;100665.22;;;13.06;81.51
59168;BME280;44948;55.046;73.266;2022-08-21T04:39:45;100704.81;;;13.39;81.59
59168;BME280;44948;55.046;73.266;2022-08-21T04:41:30;100727.16;;;13.58;81.21
59168;BME280;44948;55.046;73.266;2022-08-21T04:43:16;100717.59;;;13.57;80.87
59168;BME280;44948;55.046;73.266;2022-08-21T04:44:58;100734.66;;;13.86;81.00
59168;BME280;44948;55.046;73.266;2022-08-21T04:46:43;100745.34;;;13.96;81.84
59168;BME280;44948;55.046;73.266;2022-08-21T04:48:30;100727.84;;;13.95;80.42
59168;BME280;44948;55.046;73.266;2022-08-21T04:50:18;100735.28;;;14.12;80.53
59168;BME280;44948;55.046;73.266;2022-08-21T04:52:21;100687.69;;;13.80;80.50
59168;BME280;44948;55.046;73.266;2022-08-21T04:54:12;100726.63;;;14.10;79.66
59168;BME280;44948;55.046;73.266;2022-08-21T04:56:18;100712.88;;;13.95;80.25
59168;BME280;44948;55.046;73.266;2022-08-21T04:58:05;100708.03;;;13.89;80.52
59168;BME280;44948;55.046;73.266;2022-08-21T04:59:51;100717.41;;;14.04;80.31
59168;BME280;44948;55.046;73.266;2022-08-21T05:01:35;100739.34;;;14.27;80.30
59168;BME280;44948;55.046;73.266;2022-08-21T05:03:19;100725.66;;;14.22;80.07
59168;BME280;44948;55.046;73.266;2022-08-21T05:05:06;100671.84;;;13.91;79.73
59168;BME280;44948;55.046;73.266;2022-08-21T05:06:52;100725.66;;;14.22;79.28
59168;BME280;44948;55.046;73.266;2022-08-21T05:08:37;100720.97;;;14.26;78.72
59168;BME280;44948;55.046;73.266;2022-08-21T05:10:24;100714.53;;;14.19;79.92
59168;BME280;44948;55.046;73.266;2022-08-21T05:12:09;100731.16;;;14.42;79.74
59168;BME280;44948;55.046;73.266;2022-08-21T05:13:54;100739.91;;;14.53;79.54
59168;BME280;44948;55.046;73.266;2022-08-21T05:15:36;100738.38;;;14.62;79.94
59168;BME280;44948;55.046;73.266;2022-08-21T05:17:21;100658.16;;;14.20;79.23
59168;BME280;44948;55.046;73.266;2022-08-21T05:19:08;100693.97;;;14.45;79.51
59168;BME280;44948;55.046;73.266;2022-08-21T05:20:51;100735.84;;;14.72;79.48
59168;BME280;44948;55.046;73.266;2022-08-21T05:22:39;100734.00;;;14.83;79.90
59168;BME280;44948;55.046;73.266;2022-08-21T05:24:22;100733.50;;;14.89;80.52
59168;BME280;44948;55.046;73.266;2022-08-21T05:26:04;100680.16;;;14.52;80.06
59168;BME280;44948;55.046;73.266;2022-08-21T05:27:47;100653.09;;;14.39;79.90
59168;BME280;44948;55.046;73.266;2022-08-21T05:29:30;100738.38;;;15.05;79.14
59168;BME280;44948;55.046;73.266;2022-08-21T05:31:18;100708.34;;;14.74;78.39
59168;BME280;44948;55.046;73.266;2022-08-21T05:33:05;100737.34;;;14.97;78.76
59168;BME280;44948;55.046;73.266;2022-08-21T05:34:50;100734.56;;;14.98;78.38
59168;BME280;44948;55.046;73.266;2022-08-21T05:36:34;100674.38;;;14.58;78.22
59168;BME280;44948;55.046;73.266;2022-08-21T05:38:19;100637.00;;;14.42;78.51
59168;BME280;44948;55.046;73.266;2022-08-21T05:40:05;100661.94;;;14.60;78.28
59168;BME280;44948;55.046;73.266;2022-08-21T05:41:49;100650.19;;;14.53;78.51
59168;BME280;44948;55.046;73.266;2022-08-21T05:43:35;100717.47;;;15.13;78.31
59168;BME280;44948;55.046;73.266;2022-08-21T05:45:29;100723.97;;;15.30;78.10
59168;BME280;44948;55.046;73.266;2022-08-21T05:47:12;100611.03;;;14.58;78.32
59168;BME280;44948;55.046;73.266;2022-08-21T05:48:57;100641.00;;;14.80;79.21
59168;BME280;44948;55.046;73.266;2022-08-21T05:50:43;100728.75;;;15.36;79.09
59168;BME280;44948;55.046;73.266;2022-08-21T05:52:29;100650.22;;;14.85;79.08
59168;BME280;44948;55.046;73.266;2022-08-21T05:54:12;100737.91;;;15.00;80.15
59168;BME280;44948;55.046;73.266;2022-08-21T05:56:03;100727.69;;;15.28;80.22
59168;BME280;44948;55.046;73.266;2022-08-21T05:57:53;100725.88;;;15.28;78.90
59168;BME280;44948;55.046;73.266;2022-08-21T05:59:38;100625.19;;;14.57;78.67
59168;BME280;44948;55.046;73.266;2022-08-21T06:01:21;100718.69;;;15.30;79.07
59168;BME280;44948;55.046;73.266;2022-08-21T06:03:23;100692.94;;;15.11;79.07
59168;BME280;44948;55.046;73.266;2022-08-21T06:05:10;100734.56;;;15.30;80.06
59168;BME280;44948;55.046;73.266;2022-08-21T06:06:59;100707.34;;;15.18;79.93
59168;BME280;44948;55.046;73.266;2022-08-21T06:08:44;100675.13;;;14.92;80.14
59168;BME280;44948;55.046;73.266;2022-08-21T06:10:32;100703.16;;;15.37;80.47
59168;BME280;44948;55.046;73.266;2022-08-21T06:12:18;100731.13;;;15.60;80.19
59168;BME280;44948;55.046;73.266;2022-08-21T06:14:03;100632.66;;;15.16;79.23
59168;BME280;44948;55.046;73.266;2022-08-21T06:16:08;100723.47;;;15.78;78.71
59168;BME280;44948;55.046;73.266;2022-08-21T06:18:00;100721.00;;;15.86;77.81
59168;BME280;44948;55.046;73.266;2022-08-21T06:19:42;100649.50;;;15.46;77.80
59168;BME280;44948;55.046;73.266;2022-08-21T06:21:44;100700.97;;;15.83;77.95
59168;BME280;44948;55.046;73.266;2022-08-21T06:23:30;100652.34;;;15.54;78.26
59168;BME280;44948;55.046;73.266;2022-08-21T06:25:18;100670.91;;;15.64;77.98
59168;BME280;44948;55.046;73.266;2022-08-21T06:27:07;100633.97;;;15.52;78.03
59168;BME280;44948;55.046;73.266;2022-08-21T06:28:50;100623.31;;;15.43;77.99
59168;BME280;44948;55.046;73.266;2022-08-21T06:30:33;100588.38;;;15.09;78.25
59168;BME280;44948;55.046;73.266;2022-08-21T06:32:17;100733.91;;;15.79;79.50
59168;BME280;44948;55.046;73.266;2022-08-21T06:34:10;100725.41;;;15.76;79.86
59168;BME280;44948;55.046;73.266;2022-08-21T06:35:58;100724.50;;;15.66;80.31
59168;BME280;44948;55.046;73.266;2022-08-21T06:37:43;100727.13;;;15.66;81.02
59168;BME280;44948;55.046;73.266;2022-08-21T06:39:31;100647.72;;;15.25;81.06
59168;BME280;44948;55.046;73.266;2022-08-21T06:41:17;100670.28;;;15.30;80.88
59168;BME280;44948;55.046;73.266;2022-08-21T06:43:09;100710.19;;;15.68;79.89
59168;BME280;44948;55.046;73.266;2022-08-21T06:44:57;100731.53;;;15.76;80.00
59168;BME280;44948;55.046;73.266;2022-08-21T06:46:39;100719.34;;;15.64;80.34
59168;BME280;44948;55.046;73.266;2022-08-21T06:48:27;100663.25;;;15.19;80.28
59168;BME280;44948;55.046;73.266;2022-08-21T06:50:11;100611.13;;;14.79;81.11
59168;BME280;44948;55.046;73.266;2022-08-21T06:51:54;100735.25;;;15.53;80.87
59168;BME280;44948;55.046;73.266;2022-08-21T06:53:39;100674.94;;;15.16;81.47
59168;BME280;44948;55.046;73.266;2022-08-21T06:55:21;100700.47;;;15.48;81.08
59168;BME280;44948;55.046;73.266;2022-08-21T06:57:03;100724.50;;;15.66;81.03
59168;BME280;44948;55.046;73.266;2022-08-21T06:58:49;100676.47;;;15.40;80.78
59168;BME280;44948;55.046;73.266;2022-08-21T07:00:32;100734.78;;;15.80;80.07
59168;BME280;44948;55.046;73.266;2022-08-21T07:02:21;100734.94;;;15.88;80.84
59168;BME280;44948;55.046;73.266;2022-08-21T07:04:03;100646.63;;;15.49;80.41
59168;BME280;44948;55.046;73.266;2022-08-21T07:05:46;100729.53;;;16.20;80.71
59168;BME280;44948;55.046;73.266;2022-08-21T07:07:34;100724.50;;;16.27;80.02
59168;BME280;44948;55.046;73.266;2022-08-21T07:09:16;100725.34;;;16.27;79.29
59168;BME280;44948;55.046;73.266;2022-08-21T07:11:01;100730.50;;;16.19;79.33
59168;BME280;44948;55.046;73.266;2022-08-21T07:12:44;100722.13;;;15.83;79.77
59168;BME280;44948;55.046;73.266;2022-08-21T07:14:27;100635.59;;;15.23;80.70
59168;BME280;44948;55.046;73.266;2022-08-21T07:16:12;100696.72;;;15.30;79.86
59168;BME280;44948;55.046;73.266;2022-08-21T07:17:58;100724.75;;;15.42;79.95
59168;BME280;44948;55.046;73.266;2022-08-21T07:19:49;100666.47;;;15.02;79.82
59168;BME280;44948;55.046;73.266;2022-08-21T07:21:35;100732.19;;;15.48;80.06
59168;BME280;44948;55.046;73.266;2022-08-21T07:23:30;100748.78;;;15.39;80.02
59168;BME280;44948;55.046;73.266;2022-08-21T07:25:16;100747.00;;;15.39;80.58
59168;BME280;44948;55.046;73.266;2022-08-21T07:27:04;100744.38;;;15.28;79.72
59168;BME280;44948;55.046;73.266;2022-08-21T07:28:48;100743.88;;;15.13;80.06
59168;BME280;44948;55.046;73.266;2022-08-21T07:30:35;100752.88;;;15.11;79.97
59168;BME280;44948;55.046;73.266;2022-08-21T07:32:20;100587.91;;;14.19;80.70
59168;BME280;44948;55.046;73.266;2022-08-21T07:34:06;100743.13;;;15.11;80.97
59168;BME280;44948;55.046;73.266;2022-08-21T07:35:50;100749.81;;;15.27;81.64
59168;BME280;44948;55.046;73.266;2022-08-21T07:37:32;100686.66;;;14.91;81.27
59168;BME280;44948;55.046;73.266;2022-08-21T07:39:22;100662.56;;;14.85;80.16
59168;BME280;44948;55.046;73.266;2022-08-21T07:41:20;100738.34;;;15.16;79.60
59168;BME280;44948;55.046;73.266;2022-08-21T07:43:08;100756.28;;;15.34;79.66
59168;BME280;44948;55.046;73.266;2022-08-21T07:44:56;100627.66;;;14.38;80.04
59168;BME280;44948;55.046;73.266;2022-08-21T07:46:42;100772.44;;;15.19;79.52
59168;BME280;44948;55.046;73.266;2022-08-21T07:48:30;100652.13;;;14.40;79.43
59168;BME280;44948;55.046;73.266;2022-08-21T07:50:16;100670.84;;;14.48;79.55
59168;BME280;44948;55.046;73.266;2022-08-21T07:52:02;100750.91;;;14.92;79.92
59168;BME280;44948;55.046;73.266;2022-08-21T07:53:50;100771.53;;;14.98;79.84
59168;BME280;44948;55.046;73.266;2022-08-21T07:55:38;100701.78;;;14.46;80.35
59168;BME280;44948;55.046;73.266;2022-08-21T07:57:21;100693.63;;;14.49;81.15
59168;BME280;44948;55.046;73.266;2022-08-21T07:59:09;100784.97;;;14.95;81.10
59168;BME280;44948;55.046;73.266;2022-08-21T08:00:54;100784.25;;;14.93;81.06
59168;BME280;44948;55.046;73.266;2022-08-21T08:02:37;100784.66;;;14.77;81.65
59168;BME280;44948;55.046;73.266;2022-08-21T08:04:22;100773.03;;;14.57;81.16
59168;BME280;44948;55.046;73.266;2022-08-21T08:06:12;100790.31;;;14.73;81.26
59168;BME280;44948;55.046;73.266;2022-08-21T08:07:54;100793.66;;;14.52;81.51
59168;BME280;44948;55.046;73.266;2022-08-21T08:09:46;100788.50;;;14.51;81.76
59168;BME280;44948;55.046;73.266;2022-08-21T08:11:31;100795.34;;;14.53;81.43
59168;BME280;44948;55.046;73.266;2022-08-21T08:13:13;100794.13;;;14.57;80.77
59168;BME280;44948;55.046;73.266;2022-08-21T08:15:04;100802.69;;;14.50;80.92
59168;BME280;44948;55.046;73.266;2022-08-21T08:16:53;100675.47;;;13.79;80.99
59168;BME280;44948;55.046;73.266;2022-08-21T08:18:43;100804.22;;;14.41;81.30
59168;BME280;44948;55.046;73.266;2022-08-21T08:20:29;100655.47;;;13.41;80.65
59168;BME280;44948;55.046;73.266;2022-08-21T08:22:20;100802.53;;;14.40;81.10
59168;BME280;44948;55.046;73.266;2022-08-21T08:24:06;100763.44;;;14.23;81.00
59168;BME280;44948;55.046;73.266;2022-08-21T08:25:52;100778.56;;;14.32;80.90
59168;BME280;44948;55.046;73.266;2022-08-21T08:27:38;100735.63;;;13.85;79.83
59168;BME280;44948;55.046;73.266;2022-08-21T08:29:24;100809.75;;;14.38;80.31
59168;BME280;44948;55.046;73.266;2022-08-21T08:31:12;100818.03;;;14.33;80.30
59168;BME280;44948;55.046;73.266;2022-08-21T08:32:59;100812.16;;;14.30;80.29
59168;BME280;44948;55.046;73.266;2022-08-21T08:34:45;100658.97;;;13.31;80.04
59168;BME280;44948;55.046;73.266;2022-08-21T08:36:36;100817.91;;;14.35;79.95
59168;BME280;44948;55.046;73.266;2022-08-21T08:38:25;100781.06;;;14.11;80.24
59168;BME280;44948;55.046;73.266;2022-08-21T08:40:33;100811.06;;;14.21;79.55
59168;BME280;44948;55.046;73.266;2022-08-21T08:42:29;100742.56;;;13.86;80.28
59168;BME280;44948;55.046;73.266;2022-08-21T08:44:15;100729.03;;;13.80;80.00
59168;BME280;44948;55.046;73.266;2022-08-21T08:46:06;100807.84;;;14.29;79.53
59168;BME280;44948;55.046;73.266;2022-08-21T08:48:06;100813.69;;;14.21;79.68
59168;BME280;44948;55.046;73.266;2022-08-21T08:51:46;100729.09;;;13.56;78.76
59168;BME280;44948;55.046;73.266;2022-08-21T08:53:58;100805.63;;;14.00;78.89
59168;BME280;44948;55.046;73.266;2022-08-21T08:55:52;100702.63;;;13.46;78.96
59168;BME280;44948;55.046;73.266;2022-08-21T08:57:44;100812.16;;;14.30;79.02
59168;BME280;44948;55.046;73.266;2022-08-21T08:59:52;100809.41;;;14.31;78.52
59168;BME280;44948;55.046;73.266;2022-08-21T09:01:43;100745.94;;;14.11;77.92
59168;BME280;44948;55.046;73.266;2022-08-21T09:03:31;100724.34;;;14.05;77.03
59168;BME280;44948;55.046;73.266;2022-08-21T09:05:45;100807.34;;;14.57;77.67
59168;BME280;44948;55.046;73.266;2022-08-21T09:09:54;100813.09;;;14.18;77.88
59168;BME280;44948;55.046;73.266;2022-08-21T09:12:03;100810.94;;;14.12;77.14
59168;BME280;44948;55.046;73.266;2022-08-21T09:20:17;100805.75;;;14.10;77.49
59168;BME280;44948;55.046;73.266;2022-08-21T09:22:16;100817.13;;;13.88;77.98
59168;BME280;44948;55.046;73.266;2022-08-21T09:24:22;100807.72;;;14.30;77.53
59168;BME280;44948;55.046;73.266;2022-08-21T09:28:44;100776.63;;;14.23;76.14
59168;BME280;44948;55.046;73.266;2022-08-21T09:30:33;100790.28;;;14.28;76.20